Etusivu
METAR-TAF:

METAR-TAF

Lentoasemat :

La Crosse, Wisconsin, Yhdysvallat

Leveyspiiri: 43-52-46N, Pituuspiiri: 091-15-24W, korkeus merenpinnasta: 199 m

Tämänhetkinen sää

Tämä raportti tehtiin 12 minuuttia sitten, kello 13.53 UTC
tyyntä
Lämpötila 20°C
Kosteus 60%
Ilmanpaine 1019 hPa
Näkyvyys: 16.1 km
selkeää

METAR: KLSE 051353Z 00000KT 10SM CLR 20/12 A3010 RMK AO2 SLP188 T02000117

Aika: 09:05 (14:05 UTC)

Sääennuste

Tämä raportti tehtiin 2 tuntia ja 44 minuuttia sitten, kello 11.21 UTC
Ennuste voimassa 05. päivästä klo 12 UTC - 06. päivään klo 12 UTC
Tuuli 4 kn etelästä
Näkyvyys: 10 km
Hajanaisia pilviä 25000 ft:n korkeudessa
From 05. päivästä klo 1600 UTC
Tuuli 6 kn etelästä
Näkyvyys: 10 km
Hajanaisia pilviä 6000 ft:n korkeudessa

TAF: KLSE 051121Z 0512/0612 18004KT P6SM SCT250 FM051600 19006KT P6SM SCT060

Säähavainnot ja -ennusteet yli 4000 lentoasemalta (METAR- ja TAF-raportit).

Käytössä olevat sääasemat on merkitty karttaan keltaisilla ja punaisilla pisteillä.

Aseta hiiri pisteen päälle nähdäksesi sääaseman nimen.

Klikkaa sitten nähdäksesi säähavainnot ja -ennusteet.

Kartan vaihtaminen: klikkaa mustalla rastilla varustettuja vihreitä pisteitä, niin voit zoomata sisään; viivalla varustettua vihreää pistettä, niin voit zoomata ulos tai vihreitä nuolia, niin pääset viereisille kartoille.


METAR-TAF: